createdAt,value
2022-12-04T00:01:32.879Z,1.50
2022-12-04T00:04:01.201Z,1.60
2022-12-04T00:06:29.017Z,1.60
2022-12-04T00:08:56.457Z,1.60
2022-12-04T00:11:26.697Z,1.60
2022-12-04T00:13:54.233Z,1.60
2022-12-04T00:16:24.337Z,1.60
2022-12-04T00:18:52.650Z,1.60
2022-12-04T00:21:21.012Z,1.50
2022-12-04T00:23:48.294Z,1.50
2022-12-04T00:26:18.546Z,1.50
2022-12-04T00:28:48.687Z,1.60
2022-12-04T00:31:19.190Z,1.50
2022-12-04T00:33:46.986Z,1.50
2022-12-04T00:36:17.168Z,1.50
2022-12-04T00:38:44.808Z,1.60
2022-12-04T00:41:17.889Z,1.60
2022-12-04T00:43:46.031Z,1.50
2022-12-04T00:46:13.184Z,1.50
2022-12-04T00:48:40.638Z,1.50
2022-12-04T00:51:11.004Z,1.50
2022-12-04T00:53:38.516Z,1.50
2022-12-04T00:56:08.430Z,1.50
2022-12-04T00:58:35.533Z,1.50
2022-12-04T01:01:05.480Z,1.50
2022-12-04T01:03:32.989Z,1.50
2022-12-04T01:06:04.257Z,1.50
2022-12-04T01:08:32.189Z,1.50
2022-12-04T01:10:59.471Z,1.50
2022-12-04T01:13:27.123Z,1.50
2022-12-04T01:15:57.328Z,1.50
2022-12-04T01:18:24.347Z,1.50
2022-12-04T01:20:56.627Z,1.50
2022-12-04T01:23:28.483Z,1.50
2022-12-04T01:25:57.681Z,1.50
2022-12-04T01:28:29.311Z,1.60
2022-12-04T01:31:04.774Z,1.60
2022-12-04T01:33:33.847Z,1.50
2022-12-04T01:36:02.470Z,1.60
2022-12-04T01:38:32.576Z,1.60
2022-12-04T01:40:59.729Z,1.60
2022-12-04T01:43:30.266Z,1.60
2022-12-04T01:46:01.805Z,1.60
2022-12-04T01:48:45.063Z,1.60
2022-12-04T01:51:26.233Z,1.60
2022-12-04T01:54:01.080Z,1.60
2022-12-04T01:56:41.192Z,1.60
2022-12-04T01:59:10.846Z,1.60
2022-12-04T02:01:46.538Z,1.60
2022-12-04T02:04:13.652Z,1.60
2022-12-04T02:06:44.536Z,1.60
2022-12-04T02:09:14.467Z,1.60
2022-12-04T02:12:02.848Z,1.60
2022-12-04T02:14:32.855Z,1.60
2022-12-04T02:17:29.210Z,1.60
2022-12-04T02:20:01.869Z,1.60
2022-12-04T02:22:34.775Z,1.60
2022-12-04T02:25:13.084Z,1.50
2022-12-04T02:27:40.072Z,1.60
2022-12-04T02:30:16.330Z,1.50
2022-12-04T02:32:51.513Z,1.60
2022-12-04T02:35:41.045Z,1.60
2022-12-04T02:38:35.781Z,1.60
2022-12-04T02:41:23.699Z,1.60
2022-12-04T02:43:55.296Z,1.60
2022-12-04T02:46:36.781Z,1.60
2022-12-04T02:49:08.160Z,1.60
2022-12-04T02:51:38.153Z,1.60
2022-12-04T02:54:10.524Z,1.60
2022-12-04T02:56:42.872Z,1.60
2022-12-04T02:59:43.146Z,1.60
2022-12-04T03:02:21.346Z,1.60
2022-12-04T03:04:50.858Z,1.60
2022-12-04T03:07:25.281Z,1.60
2022-12-04T03:09:58.117Z,1.60
2022-12-04T03:12:43.714Z,1.60
2022-12-04T03:15:15.524Z,1.60
2022-12-04T03:18:06.120Z,1.60
2022-12-04T03:20:36.733Z,1.60
2022-12-04T03:23:13.511Z,1.60
2022-12-04T03:25:58.019Z,1.60
2022-12-04T03:28:38.735Z,1.60
2022-12-04T03:31:11.540Z,1.60
2022-12-04T03:33:46.590Z,1.60
2022-12-04T03:36:23.997Z,1.60
2022-12-04T03:39:01.636Z,1.60
2022-12-04T03:41:49.901Z,1.60
2022-12-04T03:44:31.612Z,1.60
2022-12-04T03:47:25.289Z,1.60
2022-12-04T03:50:22.283Z,1.60
2022-12-04T03:53:03.149Z,1.60
2022-12-04T03:55:40.155Z,1.60
2022-12-04T03:58:13.068Z,1.60
2022-12-04T04:00:43.004Z,1.60
2022-12-04T04:03:24.210Z,1.60
2022-12-04T04:05:58.630Z,1.60
2022-12-04T04:08:43.215Z,1.60
2022-12-04T04:11:26.374Z,1.60
2022-12-04T04:14:23.800Z,1.60
2022-12-04T04:17:18.691Z,1.60
2022-12-04T04:20:08.045Z,1.70
2022-12-04T04:22:56.333Z,1.60
2022-12-04T04:25:27.409Z,1.60
2022-12-04T04:27:56.574Z,1.60
2022-12-04T04:30:24.610Z,1.60
2022-12-04T04:32:57.529Z,1.60
2022-12-04T04:35:24.661Z,1.60
2022-12-04T04:38:54.198Z,1.60
2022-12-04T04:41:49.402Z,1.60
2022-12-04T04:44:51.781Z,1.60
2022-12-04T04:47:43.731Z,1.60
2022-12-04T04:50:12.807Z,1.60
2022-12-04T04:52:44.148Z,1.60
2022-12-04T04:55:11.312Z,1.60
2022-12-04T04:57:38.468Z,1.60
2022-12-04T05:00:17.077Z,1.60
2022-12-04T05:02:44.861Z,1.60
2022-12-04T05:05:13.359Z,1.70
2022-12-04T05:07:40.713Z,1.70
2022-12-04T05:10:08.800Z,1.60
2022-12-04T05:12:37.258Z,1.60
2022-12-04T05:15:04.708Z,1.60
2022-12-04T05:17:31.870Z,1.60
2022-12-04T05:19:59.067Z,1.60
2022-12-04T05:22:34.467Z,1.70
2022-12-04T05:25:02.437Z,1.70
2022-12-04T05:27:34.321Z,1.60
2022-12-04T05:30:01.495Z,1.60
2022-12-04T05:32:29.844Z,1.60
2022-12-04T05:34:58.223Z,1.60
2022-12-04T05:37:25.877Z,1.60
2022-12-04T05:39:54.524Z,1.60
2022-12-04T05:42:24.209Z,1.60
2022-12-04T05:44:51.214Z,1.60
2022-12-04T05:47:18.370Z,1.60
2022-12-04T05:49:45.401Z,1.60
2022-12-04T05:52:12.713Z,1.60
2022-12-04T05:54:40.337Z,1.60
2022-12-04T05:57:09.878Z,1.60
2022-12-04T05:59:37.960Z,1.60
2022-12-04T06:02:05.219Z,1.60
2022-12-04T06:04:32.544Z,1.60
2022-12-04T06:06:59.638Z,1.60
2022-12-04T06:09:26.643Z,1.60
2022-12-04T06:11:57.543Z,1.60
2022-12-04T06:14:24.673Z,1.60
2022-12-04T06:16:54.008Z,1.60
2022-12-04T06:19:24.086Z,1.60
2022-12-04T06:21:54.210Z,1.60
2022-12-04T06:24:24.220Z,1.60
2022-12-04T06:29:43.183Z,1.60
2022-12-04T06:32:10.403Z,1.60
2022-12-04T06:34:37.497Z,1.60
2022-12-04T06:37:04.577Z,1.60
2022-12-04T06:39:31.596Z,1.60
2022-12-04T06:41:58.703Z,1.70
2022-12-04T06:44:25.886Z,1.60
2022-12-04T06:46:54.773Z,1.70
2022-12-04T06:49:23.720Z,1.60
2022-12-04T06:51:50.742Z,1.70
2022-12-04T06:54:17.995Z,1.60
2022-12-04T06:56:45.039Z,1.60
2022-12-04T06:59:12.234Z,1.60
2022-12-04T07:01:39.509Z,1.60
2022-12-04T07:04:06.674Z,1.70
2022-12-04T07:06:36.129Z,1.60
2022-12-04T07:09:15.622Z,1.70
2022-12-04T07:11:43.787Z,1.60
2022-12-04T07:14:12.489Z,1.60
2022-12-04T07:16:42.010Z,1.60
2022-12-04T07:19:14.453Z,1.60
2022-12-04T07:21:42.914Z,1.70
2022-12-04T07:24:14.988Z,1.70
2022-12-04T07:26:42.289Z,1.70
2022-12-04T07:29:10.766Z,1.70
2022-12-04T07:31:38.532Z,1.70
2022-12-04T07:34:05.642Z,1.70
2022-12-04T07:36:32.891Z,1.70
2022-12-04T07:39:00.027Z,1.70
2022-12-04T07:41:28.319Z,1.70
2022-12-04T07:43:55.372Z,1.70
2022-12-04T07:46:26.436Z,1.70
2022-12-04T07:48:56.688Z,1.70
2022-12-04T07:51:29.650Z,1.70
2022-12-04T07:54:02.765Z,1.70
2022-12-04T07:56:31.212Z,1.70
2022-12-04T07:58:59.572Z,1.70
2022-12-04T08:01:26.806Z,1.70
2022-12-04T08:03:56.673Z,1.70
2022-12-04T08:06:25.203Z,1.70
2022-12-04T08:08:54.809Z,1.80
2022-12-04T08:11:25.209Z,1.80
2022-12-04T08:13:57.728Z,1.80
2022-12-04T08:16:25.983Z,1.80
2022-12-04T08:18:56.712Z,1.80
2022-12-04T08:21:25.811Z,1.80
2022-12-04T08:23:57.104Z,1.80
2022-12-04T08:26:26.238Z,1.80
2022-12-04T08:28:54.599Z,1.80
2022-12-04T08:31:27.720Z,1.80
2022-12-04T08:33:57.894Z,1.80
2022-12-04T08:36:25.075Z,1.80
2022-12-04T08:38:52.736Z,1.80
2022-12-04T08:41:26.383Z,1.80
2022-12-04T08:43:54.997Z,1.90
2022-12-04T08:46:25.695Z,1.90
2022-12-04T08:48:56.717Z,1.90
2022-12-04T08:51:27.330Z,1.90
2022-12-04T08:54:03.590Z,1.90
2022-12-04T08:56:31.639Z,1.90
2022-12-04T08:58:59.725Z,1.90
2022-12-04T09:01:28.290Z,1.90
2022-12-04T09:03:55.875Z,1.90
2022-12-04T09:06:26.612Z,1.90
2022-12-04T09:08:57.274Z,1.90
2022-12-04T09:11:27.840Z,1.90
2022-12-04T09:13:55.776Z,1.90
2022-12-04T09:16:24.650Z,1.90
2022-12-04T09:18:53.148Z,1.90
2022-12-04T09:21:24.624Z,1.90
2022-12-04T09:23:51.711Z,1.90
2022-12-04T09:26:28.529Z,1.90
2022-12-04T09:28:56.572Z,1.90
2022-12-04T09:31:24.759Z,1.90
2022-12-04T09:33:54.748Z,1.90
2022-12-04T09:36:24.203Z,2.00
2022-12-04T09:38:54.034Z,2.00
2022-12-04T09:41:40.216Z,2.00
2022-12-04T09:44:25.021Z,2.00
2022-12-04T09:47:00.987Z,2.00
2022-12-04T09:49:49.171Z,2.00
2022-12-04T09:52:39.364Z,2.00
2022-12-04T09:55:33.610Z,2.00
2022-12-04T09:58:04.404Z,2.00
2022-12-04T10:00:36.811Z,2.10
2022-12-04T10:03:11.748Z,2.10
2022-12-04T10:05:50.692Z,2.10
2022-12-04T10:08:23.273Z,2.10
2022-12-04T10:11:10.464Z,2.10
2022-12-04T10:13:57.634Z,2.10
2022-12-04T10:16:45.766Z,2.10
2022-12-04T10:19:33.709Z,2.10
2022-12-04T10:22:17.332Z,2.10
2022-12-04T10:24:54.615Z,2.10
2022-12-04T10:27:26.346Z,2.10
2022-12-04T10:30:01.722Z,2.10
2022-12-04T10:32:33.518Z,2.20
2022-12-04T10:35:27.069Z,2.20
2022-12-04T10:38:16.319Z,2.20
2022-12-04T10:40:49.006Z,2.20
2022-12-04T10:43:31.233Z,2.20
2022-12-04T10:45:58.679Z,2.20
2022-12-04T10:48:36.168Z,2.20
2022-12-04T10:51:03.447Z,2.30
2022-12-04T10:53:34.754Z,2.30
2022-12-04T10:56:28.168Z,2.30
2022-12-04T10:59:15.818Z,2.30
2022-12-04T11:01:42.899Z,2.40
2022-12-04T11:04:21.390Z,2.40
2022-12-04T11:06:54.767Z,2.40
2022-12-04T11:09:24.834Z,2.40
2022-12-04T11:11:52.783Z,2.50
2022-12-04T11:14:26.641Z,2.40
2022-12-04T11:17:06.448Z,2.40
2022-12-04T11:19:36.397Z,2.50
2022-12-04T11:22:16.091Z,2.50
2022-12-04T11:24:49.683Z,2.50
2022-12-04T11:27:35.440Z,2.50
2022-12-04T11:30:08.557Z,2.60
2022-12-04T11:32:38.864Z,2.50
2022-12-04T11:35:17.570Z,2.50
2022-12-04T11:37:54.628Z,2.50
2022-12-04T11:40:24.717Z,2.60
2022-12-04T11:43:18.896Z,2.50
2022-12-04T11:46:02.470Z,2.60
2022-12-04T11:48:31.664Z,2.60
2022-12-04T11:51:33.961Z,2.60
2022-12-04T11:54:26.209Z,2.60
2022-12-04T11:57:24.505Z,2.60
2022-12-04T12:00:18.555Z,2.60
2022-12-04T12:03:14.026Z,2.60
2022-12-04T12:06:13.933Z,2.70
2022-12-04T12:09:06.652Z,2.70
2022-12-04T12:12:03.318Z,2.70
2022-12-04T12:15:16.864Z,2.70
2022-12-04T12:18:15.335Z,2.70
2022-12-04T12:21:06.874Z,2.70
2022-12-04T12:23:49.268Z,2.70
2022-12-04T12:26:18.772Z,2.70
2022-12-04T12:29:10.717Z,2.70
2022-12-04T12:31:47.689Z,2.80
2022-12-04T12:34:43.126Z,2.70
2022-12-04T12:37:46.732Z,2.80
2022-12-04T12:40:40.017Z,2.80
2022-12-04T12:43:10.155Z,2.70
2022-12-04T12:45:48.592Z,2.80
2022-12-04T12:48:55.111Z,2.80
2022-12-04T12:51:37.064Z,2.80
2022-12-04T12:54:29.126Z,2.80
2022-12-04T12:57:05.874Z,2.80
2022-12-04T12:59:37.365Z,2.80
2022-12-04T13:02:39.964Z,2.80
2022-12-04T13:05:19.479Z,2.80
2022-12-04T13:07:56.104Z,2.80
2022-12-04T13:10:41.879Z,2.80
2022-12-04T13:13:17.283Z,2.80
2022-12-04T13:15:44.746Z,2.80
2022-12-04T13:18:22.771Z,2.90
2022-12-04T13:20:59.742Z,2.90
2022-12-04T13:23:51.291Z,2.90
2022-12-04T13:26:21.339Z,2.80
2022-12-04T13:29:20.549Z,2.80
2022-12-04T13:31:49.321Z,2.80
2022-12-04T13:34:39.158Z,2.80
2022-12-04T13:38:47.165Z,2.80
2022-12-04T13:42:02.066Z,2.80
2022-12-04T13:44:41.303Z,2.80
2022-12-04T13:47:14.290Z,2.80
2022-12-04T13:49:50.347Z,2.80
2022-12-04T13:52:40.068Z,2.80
2022-12-04T13:55:30.196Z,2.80
2022-12-04T13:58:11.170Z,2.80
2022-12-04T14:00:43.222Z,2.80
2022-12-04T14:03:39.796Z,2.80
2022-12-04T14:06:32.652Z,2.80
2022-12-04T14:09:16.792Z,2.80
2022-12-04T14:11:57.839Z,2.80
2022-12-04T14:14:45.809Z,2.80
2022-12-04T14:17:32.097Z,2.70
2022-12-04T14:20:09.867Z,2.70
2022-12-04T14:22:43.516Z,2.70
2022-12-04T14:25:16.711Z,2.70
2022-12-04T14:27:51.842Z,2.70
2022-12-04T14:30:32.605Z,2.70
2022-12-04T14:33:09.408Z,2.70
2022-12-04T14:35:46.218Z,2.70
2022-12-04T14:38:20.163Z,2.70
2022-12-04T14:40:50.763Z,2.70
2022-12-04T14:43:27.188Z,2.70
2022-12-04T14:46:10.307Z,2.70
2022-12-04T14:49:00.737Z,2.70
2022-12-04T14:51:47.314Z,2.70
2022-12-04T14:54:49.293Z,2.70
2022-12-04T14:57:17.287Z,2.70
2022-12-04T15:00:05.038Z,2.70
2022-12-04T15:02:38.301Z,2.70
2022-12-04T15:05:10.604Z,2.70
2022-12-04T15:07:45.363Z,2.70
2022-12-04T15:10:50.033Z,2.70
2022-12-04T15:13:31.475Z,2.70
2022-12-04T15:15:58.830Z,2.70
2022-12-04T15:18:28.185Z,2.70
2022-12-04T15:21:00.096Z,2.70
2022-12-04T15:23:40.472Z,2.60
2022-12-04T15:26:18.921Z,2.70
2022-12-04T15:28:58.252Z,2.70
2022-12-04T15:31:28.311Z,2.60
2022-12-04T15:34:03.407Z,2.60
2022-12-04T15:36:43.057Z,2.60
2022-12-04T15:39:20.507Z,2.60
2022-12-04T15:41:48.418Z,2.60
2022-12-04T15:44:30.219Z,2.60
2022-12-04T15:47:25.472Z,2.60
2022-12-04T15:50:09.485Z,2.60
2022-12-04T15:52:41.317Z,2.60
2022-12-04T15:55:13.414Z,2.60
2022-12-04T15:57:42.736Z,2.50
2022-12-04T16:00:32.935Z,2.60
2022-12-04T16:03:07.204Z,2.60
2022-12-04T16:05:36.925Z,2.50
2022-12-04T16:08:24.735Z,2.50
2022-12-04T16:11:05.954Z,2.60
2022-12-04T16:13:36.512Z,2.60
2022-12-04T16:16:10.975Z,2.60
2022-12-04T16:18:39.502Z,2.60
2022-12-04T16:21:17.350Z,2.60
2022-12-04T16:23:45.362Z,2.60
2022-12-04T16:26:18.319Z,2.60
2022-12-04T16:28:45.784Z,2.60
2022-12-04T16:31:13.908Z,2.70
2022-12-04T16:33:41.101Z,2.70
2022-12-04T16:36:12.627Z,2.70
2022-12-04T16:38:39.873Z,2.70
2022-12-04T16:41:12.810Z,2.70
2022-12-04T16:43:39.780Z,2.70
2022-12-04T16:46:11.057Z,2.70
2022-12-04T16:48:38.637Z,2.70
2022-12-04T16:51:05.870Z,2.70
2022-12-04T16:53:32.963Z,2.70
2022-12-04T16:56:00.117Z,2.80
2022-12-04T16:58:27.178Z,2.80
2022-12-04T17:00:56.453Z,2.80
2022-12-04T17:03:30.020Z,2.80
2022-12-04T17:05:58.092Z,2.80
2022-12-04T17:08:25.147Z,2.80
2022-12-04T17:10:52.643Z,2.80
2022-12-04T17:13:21.639Z,2.80
2022-12-04T17:15:49.553Z,2.80
2022-12-04T17:18:20.984Z,2.80
2022-12-04T17:20:48.724Z,2.80
2022-12-04T17:23:16.012Z,2.80
2022-12-04T17:25:43.120Z,2.80
2022-12-04T17:28:10.222Z,2.90
2022-12-04T17:30:37.410Z,2.80
2022-12-04T17:33:05.442Z,2.90
2022-12-04T17:35:32.596Z,2.90
2022-12-04T17:38:05.614Z,3.00
2022-12-04T17:40:33.517Z,3.00
2022-12-04T17:43:00.655Z,3.00
2022-12-04T17:45:28.816Z,3.00
2022-12-04T17:47:55.858Z,3.00
2022-12-04T17:50:22.881Z,3.00
2022-12-04T17:52:49.974Z,3.00
2022-12-04T17:55:17.163Z,3.00
2022-12-04T17:57:44.176Z,3.00
2022-12-04T18:00:11.609Z,3.00
2022-12-04T18:02:42.472Z,3.00
2022-12-04T18:05:11.153Z,3.00
2022-12-04T18:07:38.267Z,3.00
2022-12-04T18:10:05.997Z,3.00
2022-12-04T18:12:32.892Z,3.00
2022-12-04T18:14:59.900Z,3.00
2022-12-04T18:17:26.891Z,3.00
2022-12-04T18:20:02.642Z,3.00
2022-12-04T18:22:31.669Z,3.00
2022-12-04T18:24:58.889Z,3.00
2022-12-04T18:27:26.011Z,3.00
2022-12-04T18:29:53.435Z,3.00
2022-12-04T18:32:22.670Z,3.00
2022-12-04T18:34:49.809Z,3.00
2022-12-04T18:37:16.755Z,3.00
2022-12-04T18:39:43.960Z,3.00
2022-12-04T18:42:10.867Z,3.00
2022-12-04T18:44:37.791Z,3.00
2022-12-04T18:47:04.681Z,3.00
2022-12-04T18:49:31.635Z,3.00
2022-12-04T18:51:59.638Z,3.00
2022-12-04T18:54:26.629Z,3.00
2022-12-04T18:56:56.362Z,3.10
2022-12-04T18:59:26.153Z,3.00
2022-12-04T19:01:54.248Z,3.10
2022-12-04T19:04:25.333Z,3.00
2022-12-04T19:06:55.272Z,3.00
2022-12-04T19:09:54.271Z,3.00
2022-12-04T19:12:14.911Z,3.00
2022-12-04T19:14:42.063Z,3.00
2022-12-04T19:17:09.337Z,3.00
2022-12-04T19:19:36.335Z,3.00
2022-12-04T19:22:04.181Z,3.00
2022-12-04T19:24:31.254Z,3.00
2022-12-04T19:26:58.506Z,2.90
2022-12-04T19:29:25.596Z,3.00
2022-12-04T19:31:58.792Z,3.00
2022-12-04T19:34:26.808Z,2.90
2022-12-04T19:36:56.946Z,3.00
2022-12-04T19:39:24.548Z,3.00
2022-12-04T19:41:52.864Z,3.00
2022-12-04T19:44:47.965Z,3.00
2022-12-04T19:47:11.178Z,3.00
2022-12-04T19:49:38.319Z,2.90
2022-12-04T19:52:05.454Z,2.90
2022-12-04T19:54:32.548Z,2.90
2022-12-04T19:56:59.629Z,3.00
2022-12-04T19:59:28.561Z,3.00
2022-12-04T20:01:58.865Z,3.00
2022-12-04T20:04:28.343Z,3.00
2022-12-04T20:06:55.485Z,3.00
2022-12-04T20:09:22.794Z,3.00
2022-12-04T20:11:49.885Z,3.00
2022-12-04T20:14:17.229Z,3.00
2022-12-04T20:16:44.927Z,3.00
2022-12-04T20:19:16.478Z,3.00
2022-12-04T20:21:44.638Z,3.10
2022-12-04T20:24:14.266Z,3.00
2022-12-04T20:26:42.982Z,3.10
2022-12-04T20:29:13.405Z,3.10
2022-12-04T20:31:42.998Z,3.10
2022-12-04T20:34:18.599Z,3.10
2022-12-04T20:36:47.194Z,3.20
2022-12-04T20:39:15.772Z,3.10
2022-12-04T20:41:43.386Z,3.10
2022-12-04T20:44:14.565Z,3.20
2022-12-04T20:46:42.825Z,3.20
2022-12-04T20:49:20.846Z,3.20
2022-12-04T20:51:58.714Z,3.20
2022-12-04T20:54:25.947Z,3.20
2022-12-04T20:56:53.674Z,3.20
2022-12-04T20:59:22.758Z,3.20
2022-12-04T21:01:51.443Z,3.20
2022-12-04T21:04:19.488Z,3.30
2022-12-04T21:06:47.039Z,3.30
2022-12-04T21:09:20.017Z,3.30
2022-12-04T21:11:50.924Z,3.30
2022-12-04T21:14:39.399Z,3.30
2022-12-04T21:17:09.289Z,3.30
2022-12-04T21:19:36.585Z,3.30
2022-12-04T21:22:03.999Z,3.30
2022-12-04T21:24:36.293Z,3.30
2022-12-04T21:27:07.988Z,3.30
2022-12-04T21:29:37.102Z,3.30
2022-12-04T21:32:06.133Z,3.40
2022-12-04T21:34:33.295Z,3.40
2022-12-04T21:37:00.487Z,3.40
2022-12-04T21:39:27.648Z,3.40
2022-12-04T21:42:13.529Z,3.40
2022-12-04T21:44:40.753Z,3.40
2022-12-04T21:47:18.881Z,3.40
2022-12-04T21:49:49.214Z,3.40
2022-12-04T21:52:16.927Z,3.40
2022-12-04T21:54:44.203Z,3.40
2022-12-04T21:57:11.246Z,3.40
2022-12-04T21:59:38.267Z,3.40
2022-12-04T22:02:05.501Z,3.50
2022-12-04T22:04:32.615Z,3.50
2022-12-04T22:06:59.664Z,3.50
2022-12-04T22:09:26.989Z,3.50
2022-12-04T22:11:58.454Z,3.50
2022-12-04T22:14:28.042Z,3.50
2022-12-04T22:16:59.197Z,3.50
2022-12-04T22:19:26.321Z,3.50
2022-12-04T22:21:56.280Z,3.50
2022-12-04T22:24:32.301Z,3.50
2022-12-04T22:27:01.847Z,3.50
2022-12-04T22:32:17.905Z,3.50
2022-12-04T22:34:49.172Z,3.60
2022-12-04T22:37:18.816Z,3.60
2022-12-04T22:39:45.700Z,3.60
2022-12-04T22:42:12.591Z,3.60
2022-12-04T22:44:39.460Z,3.60
2022-12-04T22:47:06.599Z,3.60
2022-12-04T22:49:33.631Z,3.60
2022-12-04T22:52:00.876Z,3.60
2022-12-04T22:54:29.828Z,3.60
2022-12-04T22:56:57.846Z,3.60
2022-12-04T22:59:27.243Z,3.60
2022-12-04T23:02:01.546Z,3.60
2022-12-04T23:04:28.977Z,3.70
2022-12-04T23:06:58.147Z,3.70
2022-12-04T23:09:28.490Z,3.70
2022-12-04T23:11:56.462Z,3.70
2022-12-04T23:14:32.007Z,3.70
2022-12-04T23:17:00.372Z,3.70
2022-12-04T23:19:31.327Z,3.70
2022-12-04T23:21:58.586Z,3.70
2022-12-04T23:24:28.145Z,3.70
2022-12-04T23:27:00.069Z,3.70
2022-12-04T23:29:51.999Z,3.70
2022-12-04T23:32:16.692Z,3.70
2022-12-04T23:34:43.638Z,3.70
2022-12-04T23:37:10.851Z,3.80
2022-12-04T23:39:40.052Z,3.80
2022-12-04T23:42:09.482Z,3.80
2022-12-04T23:44:42.241Z,3.80
2022-12-04T23:47:11.637Z,3.80
2022-12-04T23:49:41.088Z,3.80
2022-12-04T23:52:08.007Z,3.80
2022-12-04T23:54:37.683Z,3.80
2022-12-04T23:57:04.754Z,3.80
2022-12-04T23:59:31.670Z,3.80
